createdAt,value
2018-07-22T00:00:34.312Z,1.33
2018-07-22T00:03:02.241Z,1.63
2018-07-22T00:05:30.830Z,1.63
2018-07-22T00:07:59.065Z,1.70
2018-07-22T00:10:27.837Z,1.40
2018-07-22T00:12:55.946Z,1.87
2018-07-22T00:15:23.935Z,1.40
2018-07-22T00:17:51.930Z,1.70
2018-07-22T00:20:19.937Z,1.40
2018-07-22T00:22:47.666Z,1.90
2018-07-22T00:25:15.850Z,1.80
2018-07-22T00:27:43.545Z,1.60
2018-07-22T00:30:11.265Z,1.37
2018-07-22T00:32:40.921Z,1.33
2018-07-22T00:35:09.966Z,1.50
2018-07-22T00:37:38.222Z,1.70
2018-07-22T00:40:06.563Z,1.77
2018-07-22T00:42:34.609Z,2.00
2018-07-22T00:45:02.322Z,1.50
2018-07-22T00:47:30.030Z,1.60
2018-07-22T00:49:57.694Z,1.57
2018-07-22T00:52:25.591Z,1.60
2018-07-22T00:54:53.318Z,1.80
2018-07-22T00:57:21.247Z,2.00
2018-07-22T00:59:49.041Z,1.40
2018-07-22T01:02:16.920Z,1.80
2018-07-22T01:04:44.576Z,1.93
2018-07-22T01:07:12.304Z,1.63
2018-07-22T01:09:40.237Z,1.47
2018-07-22T01:12:08.393Z,1.93
2018-07-22T01:14:36.102Z,1.37
2018-07-22T01:17:04.076Z,1.63
2018-07-22T01:19:32.067Z,1.70
2018-07-22T01:22:00.029Z,1.90
2018-07-22T01:24:27.698Z,1.63
2018-07-22T01:26:55.568Z,1.70
2018-07-22T01:29:23.201Z,2.00
2018-07-22T01:31:50.870Z,1.57
2018-07-22T01:34:18.977Z,1.93
2018-07-22T01:36:46.917Z,1.50
2018-07-22T01:39:14.584Z,1.40
2018-07-22T01:41:42.289Z,1.60
2018-07-22T01:44:10.202Z,1.53
2018-07-22T01:46:37.897Z,1.50
2018-07-22T01:49:05.571Z,1.70
2018-07-22T01:51:33.548Z,1.93
2018-07-22T01:54:01.537Z,1.47
2018-07-22T01:56:29.342Z,1.90
2018-07-22T01:58:57.541Z,1.97
2018-07-22T02:01:25.233Z,1.53
2018-07-22T02:03:52.891Z,1.83
2018-07-22T02:06:20.566Z,1.60
2018-07-22T02:08:48.598Z,1.70
2018-07-22T02:11:16.309Z,1.90
2018-07-22T02:13:43.944Z,1.60
2018-07-22T02:16:11.646Z,1.70
2018-07-22T02:18:39.300Z,1.60
2018-07-22T02:21:07.033Z,1.50
2018-07-22T02:23:34.655Z,1.53
2018-07-22T02:26:02.284Z,1.73
2018-07-22T02:28:29.983Z,1.80
2018-07-22T02:30:57.930Z,1.77
2018-07-22T02:33:26.248Z,2.00
2018-07-22T02:35:54.166Z,1.60
2018-07-22T02:38:21.845Z,1.77
2018-07-22T02:40:49.743Z,1.40
2018-07-22T02:43:17.808Z,1.77
2018-07-22T02:45:45.439Z,1.60
2018-07-22T02:48:13.189Z,1.77
2018-07-22T02:50:41.332Z,1.70
2018-07-22T02:53:09.343Z,1.80
2018-07-22T02:55:37.059Z,2.40
2018-07-22T02:58:04.714Z,1.60
2018-07-22T03:00:32.674Z,1.90
2018-07-22T03:03:00.598Z,1.93
2018-07-22T03:05:28.312Z,1.67
2018-07-22T03:07:56.620Z,1.73
2018-07-22T03:10:24.356Z,2.17
2018-07-22T03:12:52.086Z,1.60
2018-07-22T03:15:19.874Z,1.90
2018-07-22T03:17:47.506Z,1.80
2018-07-22T03:20:16.019Z,1.83
2018-07-22T03:22:43.993Z,1.50
2018-07-22T03:25:11.628Z,1.50
2018-07-22T03:27:39.320Z,1.70
2018-07-22T03:30:06.966Z,1.40
2018-07-22T03:32:34.993Z,2.30
2018-07-22T03:35:02.732Z,1.70
2018-07-22T03:37:30.821Z,1.60
2018-07-22T03:39:58.745Z,2.07
2018-07-22T03:42:27.040Z,1.60
2018-07-22T03:44:54.686Z,1.53
2018-07-22T03:47:22.410Z,1.87
2018-07-22T03:49:50.405Z,1.87
2018-07-22T03:52:18.359Z,1.53
2018-07-22T03:54:46.330Z,1.90
2018-07-22T03:57:14.718Z,1.73
2018-07-22T03:59:42.961Z,1.60
2018-07-22T04:02:10.723Z,1.90
2018-07-22T04:04:38.692Z,1.50
2018-07-22T04:07:06.745Z,1.63
2018-07-22T04:09:34.426Z,1.70
2018-07-22T04:12:02.103Z,1.90
2018-07-22T04:14:30.101Z,1.60
2018-07-22T04:16:57.757Z,1.87
2018-07-22T04:19:25.442Z,1.93
2018-07-22T04:21:53.476Z,1.73
2018-07-22T04:24:21.433Z,1.90
2018-07-22T04:26:49.149Z,2.00
2018-07-22T04:29:16.817Z,1.77
2018-07-22T04:31:44.831Z,1.80
2018-07-22T04:34:13.142Z,1.63
2018-07-22T04:36:41.051Z,2.13
2018-07-22T04:39:09.663Z,1.63
2018-07-22T04:41:37.308Z,1.60
2018-07-22T04:44:05.436Z,1.87
2018-07-22T04:46:33.362Z,1.80
2018-07-22T04:49:01.017Z,1.77
2018-07-22T04:51:28.770Z,1.80
2018-07-22T04:53:56.431Z,2.00
2018-07-22T04:56:24.369Z,2.10
2018-07-22T04:58:52.675Z,1.90
2018-07-22T05:01:20.606Z,2.07
2018-07-22T05:03:48.256Z,1.80
2018-07-22T05:06:15.890Z,2.03
2018-07-22T05:08:44.186Z,1.93
2018-07-22T05:11:11.821Z,2.33
2018-07-22T05:13:39.549Z,2.07
2018-07-22T05:16:07.219Z,1.77
2018-07-22T05:18:35.241Z,1.70
2018-07-22T05:21:02.891Z,2.23
2018-07-22T05:23:30.561Z,2.07
2018-07-22T05:25:58.537Z,2.00
2018-07-22T05:28:26.490Z,1.60
2018-07-22T05:30:54.460Z,2.27
2018-07-22T05:33:22.176Z,2.07
2018-07-22T05:35:49.793Z,1.43
2018-07-22T05:38:17.498Z,2.03
2018-07-22T05:40:45.549Z,2.17
2018-07-22T05:43:13.183Z,1.80
2018-07-22T05:45:40.903Z,2.00
2018-07-22T05:48:09.322Z,1.87
2018-07-22T05:50:37.030Z,2.37
2018-07-22T05:53:05.172Z,1.73
2018-07-22T05:55:33.328Z,1.93
2018-07-22T05:58:01.551Z,1.87
2018-07-22T06:00:29.233Z,1.80
2018-07-22T06:02:56.906Z,2.00
2018-07-22T06:05:24.936Z,1.90
2018-07-22T06:07:52.566Z,1.60
2018-07-22T06:10:20.529Z,1.80
2018-07-22T06:12:48.247Z,1.83
2018-07-22T06:15:16.175Z,1.80
2018-07-22T06:17:43.853Z,2.00
2018-07-22T06:20:11.551Z,1.73
2018-07-22T06:22:39.232Z,1.87
2018-07-22T06:25:07.506Z,2.20
2018-07-22T06:27:35.452Z,1.83
2018-07-22T06:30:03.262Z,1.80
2018-07-22T06:32:31.141Z,2.30
2018-07-22T06:34:58.855Z,2.10
2018-07-22T06:37:26.547Z,1.90
2018-07-22T06:39:54.232Z,2.00
2018-07-22T06:42:21.861Z,1.80
2018-07-22T06:44:49.548Z,1.70
2018-07-22T06:47:17.815Z,1.97
2018-07-22T06:49:45.483Z,2.27
2018-07-22T06:52:13.112Z,2.27
2018-07-22T06:54:40.783Z,2.20
2018-07-22T06:57:09.372Z,1.93
2018-07-22T06:59:37.022Z,1.90
2018-07-22T07:02:04.714Z,2.07
2018-07-22T07:04:32.745Z,1.87
2018-07-22T07:07:00.444Z,1.90
2018-07-22T07:09:28.158Z,2.10
2018-07-22T07:11:55.788Z,1.80
2018-07-22T07:14:24.003Z,2.30
2018-07-22T07:16:51.781Z,1.93
2018-07-22T07:19:19.655Z,2.20
2018-07-22T07:21:47.921Z,2.23
2018-07-22T07:24:15.553Z,1.93
2018-07-22T07:26:43.529Z,2.17
2018-07-22T07:29:11.261Z,2.40
2018-07-22T07:31:38.930Z,2.40
2018-07-22T07:34:07.110Z,2.40
2018-07-22T07:36:34.859Z,2.30
2018-07-22T07:39:02.697Z,1.93
2018-07-22T07:41:30.380Z,2.03
2018-07-22T07:43:58.569Z,1.93
2018-07-22T07:46:26.281Z,2.13
2018-07-22T07:48:53.961Z,2.63
2018-07-22T07:51:21.834Z,1.93
2018-07-22T07:53:49.645Z,1.93
2018-07-22T07:56:17.943Z,1.70
2018-07-22T07:58:45.606Z,1.70
2018-07-22T08:01:13.328Z,2.10
2018-07-22T08:03:41.040Z,2.40
2018-07-22T08:06:08.897Z,2.07
2018-07-22T08:08:36.622Z,1.90
2018-07-22T08:11:04.277Z,2.23
2018-07-22T08:13:31.956Z,2.40
2018-07-22T08:15:59.642Z,1.77
2018-07-22T08:18:27.391Z,2.40
2018-07-22T08:20:55.120Z,2.27
2018-07-22T08:23:23.050Z,1.83
2018-07-22T08:25:50.698Z,2.33
2018-07-22T08:28:29.997Z,2.30
2018-07-22T08:30:58.311Z,2.53
2018-07-22T08:33:26.083Z,2.20
2018-07-22T08:35:54.384Z,2.40
2018-07-22T08:38:22.013Z,2.07
2018-07-22T08:40:49.981Z,2.23
2018-07-22T08:43:17.636Z,2.20
2018-07-22T08:45:45.675Z,2.27
2018-07-22T08:48:13.577Z,2.10
2018-07-22T08:50:41.562Z,2.60
2018-07-22T08:53:09.621Z,2.60
2018-07-22T08:55:38.198Z,2.43
2018-07-22T08:58:06.237Z,2.30
2018-07-22T09:00:34.245Z,2.47
2018-07-22T09:03:02.029Z,2.10
2018-07-22T09:05:29.707Z,2.10
2018-07-22T09:07:57.385Z,1.73
2018-07-22T09:10:25.116Z,2.50
2018-07-22T09:12:53.141Z,2.33
2018-07-22T09:15:20.854Z,2.20
2018-07-22T09:17:48.836Z,2.13
2018-07-22T09:20:17.044Z,2.00
2018-07-22T09:22:44.726Z,2.40
2018-07-22T09:25:12.819Z,2.10
2018-07-22T09:27:40.470Z,2.07
2018-07-22T09:30:08.757Z,2.47
2018-07-22T09:32:36.772Z,2.00
2018-07-22T09:35:04.520Z,1.93
2018-07-22T09:37:32.767Z,2.33
2018-07-22T09:40:00.771Z,2.40
2018-07-22T09:42:28.505Z,2.40
2018-07-22T09:44:56.480Z,2.20
2018-07-22T09:47:24.109Z,2.17
2018-07-22T09:49:51.782Z,2.30
2018-07-22T09:52:19.952Z,2.40
2018-07-22T09:54:47.633Z,2.10
2018-07-22T09:57:15.929Z,2.47
2018-07-22T09:59:43.701Z,2.17
2018-07-22T10:02:11.943Z,2.33
2018-07-22T10:04:39.925Z,2.63
2018-07-22T10:07:08.685Z,2.37
2018-07-22T10:09:36.357Z,2.50
2018-07-22T10:12:04.061Z,2.03
2018-07-22T10:14:31.786Z,2.20
2018-07-22T10:16:59.737Z,2.17
2018-07-22T10:19:27.408Z,1.77
2018-07-22T10:21:55.286Z,2.33
2018-07-22T10:24:23.903Z,2.40
2018-07-22T10:26:51.547Z,2.00
2018-07-22T10:29:19.537Z,2.40
2018-07-22T10:31:47.590Z,2.20
2018-07-22T10:34:15.534Z,2.57
2018-07-22T10:36:43.428Z,2.00
2018-07-22T10:39:11.848Z,2.20
2018-07-22T10:41:39.612Z,1.90
2018-07-22T10:44:07.690Z,1.83
2018-07-22T10:46:35.777Z,1.97
2018-07-22T10:49:03.454Z,2.10
2018-07-22T10:51:31.254Z,2.27
2018-07-22T10:53:59.578Z,1.93
2018-07-22T10:56:27.285Z,2.10
2018-07-22T10:58:54.984Z,2.10
2018-07-22T11:01:22.980Z,2.80
2018-07-22T11:03:50.919Z,2.70
2018-07-22T11:06:18.634Z,2.33
2018-07-22T11:08:46.304Z,2.40
2018-07-22T11:11:13.932Z,2.53
2018-07-22T11:13:42.010Z,1.90
2018-07-22T11:16:09.708Z,2.10
2018-07-22T11:18:37.337Z,2.20
2018-07-22T11:21:05.709Z,2.27
2018-07-22T11:23:33.948Z,2.10
2018-07-22T11:26:01.978Z,2.20
2018-07-22T11:28:29.633Z,2.40
2018-07-22T11:30:57.684Z,2.27
2018-07-22T11:33:25.301Z,2.30
2018-07-22T11:35:53.414Z,2.70
2018-07-22T11:38:21.103Z,2.30
2018-07-22T11:40:48.717Z,2.27
2018-07-22T11:43:16.679Z,2.30
2018-07-22T11:45:44.660Z,2.00
2018-07-22T11:48:12.644Z,2.33
2018-07-22T11:50:40.656Z,2.10
2018-07-22T11:53:08.563Z,2.00
2018-07-22T11:55:36.223Z,1.90
2018-07-22T11:58:03.953Z,2.60
2018-07-22T12:00:31.877Z,2.10
2018-07-22T12:03:00.159Z,2.07
2018-07-22T12:05:28.124Z,2.50
2018-07-22T12:07:56.107Z,2.40
2018-07-22T12:10:23.782Z,2.37
2018-07-22T12:12:52.011Z,1.97
2018-07-22T12:15:19.653Z,2.10
2018-07-22T12:17:47.601Z,2.10
2018-07-22T12:20:15.286Z,2.00
2018-07-22T12:22:43.478Z,2.30
2018-07-22T12:25:11.162Z,2.03
2018-07-22T12:27:39.144Z,2.10
2018-07-22T12:30:06.955Z,2.70
2018-07-22T12:32:34.946Z,2.20
2018-07-22T12:35:03.191Z,1.80
2018-07-22T12:37:30.866Z,2.20
2018-07-22T12:39:58.566Z,2.03
2018-07-22T12:42:26.631Z,2.13
2018-07-22T12:44:54.275Z,2.17
2018-07-22T12:47:22.234Z,2.00
2018-07-22T12:49:50.157Z,2.30
2018-07-22T12:52:18.236Z,2.23
2018-07-22T12:54:45.956Z,2.00
2018-07-22T12:57:13.954Z,1.97
2018-07-22T12:59:42.194Z,2.10
2018-07-22T13:02:10.127Z,1.93
2018-07-22T13:04:38.039Z,2.23
2018-07-22T13:07:05.806Z,2.20
2018-07-22T13:09:34.033Z,1.77
2018-07-22T13:12:01.712Z,2.33
2018-07-22T13:14:29.400Z,1.83
2018-07-22T13:16:57.333Z,2.60
2018-07-22T13:19:25.345Z,2.27
2018-07-22T13:21:53.314Z,2.00
2018-07-22T13:24:21.240Z,2.10
2018-07-22T13:26:49.385Z,2.80
2018-07-22T13:29:17.309Z,1.80
2018-07-22T13:31:44.980Z,2.30
2018-07-22T13:34:13.311Z,2.27
2018-07-22T13:36:40.935Z,2.90
2018-07-22T13:39:10.500Z,2.33
2018-07-22T13:41:38.975Z,2.70
2018-07-22T13:44:06.885Z,1.90
2018-07-22T13:46:34.953Z,2.10
2018-07-22T13:49:02.897Z,2.30
2018-07-22T13:51:30.683Z,2.30
2018-07-22T13:53:58.337Z,2.00
2018-07-22T13:56:26.002Z,1.80
2018-07-22T13:58:53.842Z,1.97
2018-07-22T14:01:21.894Z,1.90
2018-07-22T14:03:49.905Z,2.13
2018-07-22T14:06:17.598Z,1.93
2018-07-22T14:08:45.787Z,2.30
2018-07-22T14:11:13.736Z,2.97
2018-07-22T14:13:41.518Z,2.03
2018-07-22T14:16:09.171Z,2.60
2018-07-22T14:18:36.848Z,2.63
2018-07-22T14:21:05.011Z,2.40
2018-07-22T14:23:33.031Z,1.87
2018-07-22T14:26:00.702Z,2.00
2018-07-22T14:28:28.373Z,2.20
2018-07-22T14:30:56.073Z,2.00
2018-07-22T14:33:23.727Z,2.27
2018-07-22T14:35:51.754Z,2.00
2018-07-22T14:38:20.081Z,2.63
2018-07-22T14:40:48.031Z,2.40
2018-07-22T14:43:16.356Z,2.20
2018-07-22T14:45:44.257Z,2.73
2018-07-22T14:48:12.125Z,2.53
2018-07-22T14:50:39.832Z,2.50
2018-07-22T14:53:08.076Z,3.23
2018-07-22T14:55:35.829Z,2.80
2018-07-22T14:58:03.529Z,2.77
2018-07-22T15:00:31.449Z,2.70
2018-07-22T15:02:59.475Z,3.30
2018-07-22T15:05:27.565Z,3.60
2018-07-22T15:07:55.245Z,3.37
2018-07-22T15:10:22.885Z,3.07
2018-07-22T15:12:50.547Z,2.90
2018-07-22T15:15:18.203Z,3.23
2018-07-22T15:17:47.275Z,3.50
2018-07-22T15:20:15.566Z,3.27
2018-07-22T15:22:43.485Z,3.87
2018-07-22T15:25:11.656Z,3.50
2018-07-22T15:27:39.340Z,3.90
2018-07-22T15:30:07.675Z,3.90
2018-07-22T15:32:35.912Z,3.60
2018-07-22T15:35:03.564Z,3.60
2018-07-22T15:37:31.287Z,4.10
2018-07-22T15:39:58.918Z,3.60
2018-07-22T15:42:26.937Z,3.60
2018-07-22T15:44:54.586Z,3.10
2018-07-22T15:47:22.273Z,3.00
2018-07-22T15:49:49.920Z,2.90
2018-07-22T15:52:17.622Z,2.93
2018-07-22T15:54:45.545Z,3.83
2018-07-22T15:57:13.168Z,2.93
2018-07-22T15:59:41.201Z,3.23
2018-07-22T16:02:08.887Z,2.77
2018-07-22T16:04:36.693Z,3.17
2018-07-22T16:07:04.481Z,3.20
2018-07-22T16:09:32.398Z,3.20
2018-07-22T16:12:00.345Z,3.63
2018-07-22T16:14:28.218Z,3.20
2018-07-22T16:16:56.144Z,2.83
2018-07-22T16:19:24.174Z,4.03
2018-07-22T16:21:51.917Z,3.70
2018-07-22T16:24:19.954Z,4.20
2018-07-22T16:26:47.591Z,3.50
2018-07-22T16:29:15.456Z,3.50
2018-07-22T16:31:43.473Z,3.50
2018-07-22T16:34:11.216Z,3.43
2018-07-22T16:36:38.830Z,3.37
2018-07-22T16:39:09.399Z,3.10
2018-07-22T16:41:37.822Z,3.83
2018-07-22T16:44:06.495Z,2.80
2018-07-22T16:46:34.715Z,3.17
2018-07-22T16:49:02.596Z,3.20
2018-07-22T16:51:30.269Z,3.70
2018-07-22T16:53:57.890Z,3.20
2018-07-22T16:56:26.456Z,3.23
2018-07-22T16:58:54.382Z,3.37
2018-07-22T17:01:22.084Z,3.80
2018-07-22T17:03:49.718Z,3.70
2018-07-22T17:06:17.987Z,3.30
2018-07-22T17:08:45.649Z,3.10
2018-07-22T17:11:13.282Z,3.40
2018-07-22T17:13:40.975Z,3.87
2018-07-22T17:16:08.647Z,3.43
2018-07-22T17:18:36.280Z,3.03
2018-07-22T17:21:04.185Z,2.90
2018-07-22T17:23:32.216Z,3.20
2018-07-22T17:26:00.190Z,3.40
2018-07-22T17:28:28.384Z,3.10
2018-07-22T17:30:56.306Z,3.03
2018-07-22T17:33:24.200Z,3.80
2018-07-22T17:35:51.905Z,3.00
2018-07-22T17:38:19.544Z,3.30
2018-07-22T17:40:47.196Z,2.90
2018-07-22T17:43:15.506Z,3.63
2018-07-22T17:45:43.140Z,3.60
2018-07-22T17:48:11.121Z,2.80
2018-07-22T17:50:39.030Z,2.60
2018-07-22T17:53:07.080Z,3.23
2018-07-22T17:55:35.422Z,3.00
2018-07-22T17:58:03.444Z,2.53
2018-07-22T18:00:31.358Z,3.23
2018-07-22T18:03:24.527Z,2.93
2018-07-22T18:05:52.372Z,3.93
2018-07-22T18:08:20.225Z,3.40
2018-07-22T18:10:48.888Z,2.70
2018-07-22T18:13:16.661Z,3.10
2018-07-22T18:15:45.096Z,3.27
2018-07-22T18:18:13.482Z,3.40
2018-07-22T18:20:41.814Z,3.67
2018-07-22T18:23:09.566Z,3.23
2018-07-22T18:25:37.747Z,3.20
2018-07-22T18:28:05.564Z,3.20
2018-07-22T18:30:33.221Z,3.10
2018-07-22T18:33:01.140Z,3.27
2018-07-22T18:35:29.376Z,2.90
2018-07-22T18:37:57.224Z,3.17
2018-07-22T18:40:26.871Z,3.40
2018-07-22T18:42:56.052Z,3.30
2018-07-22T18:45:25.425Z,4.03
2018-07-22T18:47:53.645Z,4.87
2018-07-22T18:50:21.388Z,5.00
2018-07-22T18:52:49.047Z,4.77
2018-07-22T18:55:16.728Z,3.50
2018-07-22T18:57:45.029Z,3.70
2018-07-22T19:00:12.704Z,4.00
2018-07-22T19:02:40.388Z,3.40
2018-07-22T19:05:08.469Z,3.40
2018-07-22T19:07:36.134Z,4.00
2018-07-22T19:10:04.610Z,3.60
2018-07-22T19:12:32.757Z,4.60
2018-07-22T19:15:00.435Z,3.80
2018-07-22T19:17:28.134Z,3.60
2018-07-22T19:19:56.025Z,3.50
2018-07-22T19:22:23.690Z,3.23
2018-07-22T19:24:52.338Z,3.37
2018-07-22T19:27:19.990Z,3.37
2018-07-22T19:29:48.030Z,3.83
2018-07-22T19:32:15.982Z,3.10
2018-07-22T19:34:43.846Z,3.70
2018-07-22T19:37:11.482Z,3.50
2018-07-22T19:39:39.416Z,3.30
2018-07-22T19:42:07.313Z,3.23
2018-07-22T19:44:35.001Z,3.07
2018-07-22T19:47:02.689Z,3.10
2018-07-22T19:49:30.380Z,2.53
2018-07-22T19:51:58.353Z,2.90
2018-07-22T19:54:25.981Z,2.70
2018-07-22T19:56:53.662Z,2.70
2018-07-22T19:59:21.400Z,3.50
2018-07-22T20:01:49.674Z,2.90
2018-07-22T20:04:18.072Z,3.27
2018-07-22T20:06:46.160Z,3.20
2018-07-22T20:09:14.030Z,2.60
2018-07-22T20:11:43.448Z,3.50
2018-07-22T20:14:11.157Z,2.67
2018-07-22T20:16:39.332Z,3.20
2018-07-22T20:19:07.301Z,3.03
2018-07-22T20:21:34.939Z,3.20
2018-07-22T20:24:02.848Z,2.87
2018-07-22T20:26:31.725Z,2.90
2018-07-22T20:28:59.821Z,3.20
2018-07-22T20:31:27.761Z,3.40
2018-07-22T20:33:55.732Z,3.23
2018-07-22T20:36:23.716Z,3.47
2018-07-22T20:38:51.406Z,2.70
2018-07-22T20:41:19.094Z,3.20
2018-07-22T20:43:47.135Z,3.20
2018-07-22T20:46:14.838Z,3.00
2018-07-22T20:48:42.825Z,3.03
2018-07-22T20:51:10.494Z,2.80
2018-07-22T20:53:38.424Z,2.80
2018-07-22T20:56:06.854Z,2.70
2018-07-22T20:58:34.888Z,2.83
2018-07-22T21:01:02.607Z,2.57
2018-07-22T21:03:30.310Z,3.20
2018-07-22T21:05:57.941Z,3.20
2018-07-22T21:08:25.857Z,2.57
2018-07-22T21:10:53.899Z,2.57
2018-07-22T21:13:23.106Z,2.73
2018-07-22T21:15:51.100Z,2.87
2018-07-22T21:18:18.781Z,2.87
2018-07-22T21:20:46.527Z,2.90
2018-07-22T21:23:14.489Z,2.63
2018-07-22T21:25:42.584Z,2.40
2018-07-22T21:28:10.632Z,2.87
2018-07-22T21:30:38.602Z,2.63
2018-07-22T21:33:06.354Z,2.67
2018-07-22T21:35:33.978Z,3.23
2018-07-22T21:38:01.640Z,3.10
2018-07-22T21:40:29.482Z,2.53
2018-07-22T21:42:57.300Z,2.50
2018-07-22T21:45:24.984Z,2.60
2018-07-22T21:47:52.664Z,2.47
2018-07-22T21:50:20.883Z,2.60
2018-07-22T21:52:49.003Z,2.50
2018-07-22T21:55:16.690Z,2.40
2018-07-22T21:57:44.625Z,2.30
2018-07-22T22:00:23.119Z,2.57
2018-07-22T22:02:51.718Z,2.57
2018-07-22T22:05:19.368Z,3.07
2018-07-22T22:07:46.983Z,2.20
2018-07-22T22:10:14.987Z,2.97
2018-07-22T22:12:44.521Z,2.30
2018-07-22T22:15:20.149Z,2.43
2018-07-22T22:17:47.790Z,2.53
2018-07-22T22:20:15.578Z,2.37
2018-07-22T22:22:43.289Z,2.63
2018-07-22T22:25:11.386Z,2.30
2018-07-22T22:27:39.814Z,2.40
2018-07-22T22:30:08.426Z,2.43
2018-07-22T22:32:36.804Z,3.20
2018-07-22T22:35:04.420Z,3.00
2018-07-22T22:37:32.112Z,2.13
2018-07-22T22:40:00.072Z,2.20
2018-07-22T22:42:28.132Z,2.60
2018-07-22T22:44:56.404Z,2.00
2018-07-22T22:47:24.265Z,2.60
2018-07-22T22:49:51.896Z,2.50
2018-07-22T22:52:19.953Z,2.33
2018-07-22T22:54:47.592Z,1.97
2018-07-22T22:57:15.278Z,1.80
2018-07-22T22:59:42.894Z,2.60
2018-07-22T23:02:11.047Z,2.37
2018-07-22T23:04:39.025Z,2.13
2018-07-22T23:07:07.066Z,2.60
2018-07-22T23:09:34.715Z,2.07
2018-07-22T23:12:02.398Z,2.33
2018-07-22T23:14:30.094Z,2.03
2018-07-22T23:16:58.046Z,2.07
2018-07-22T23:19:26.797Z,2.20
2018-07-22T23:21:54.484Z,2.23
2018-07-22T23:24:23.097Z,2.37
2018-07-22T23:26:51.014Z,2.30
2018-07-22T23:29:18.595Z,2.30
2018-07-22T23:31:46.585Z,2.70
2018-07-22T23:34:15.514Z,2.30
2018-07-22T23:36:43.369Z,2.70
2018-07-22T23:39:10.966Z,1.90
2018-07-22T23:41:38.660Z,2.63
2018-07-22T23:44:06.588Z,2.60
2018-07-22T23:46:34.530Z,2.80
2018-07-22T23:49:02.205Z,2.20
2018-07-22T23:51:30.152Z,1.90
2018-07-22T23:53:57.806Z,2.10
2018-07-22T23:56:25.824Z,2.10
2018-07-22T23:58:53.465Z,1.80
